EZY89DB EGCC-EGJJ
Flight info
| Callsign | EZY89DB |
|---|---|
| Flight time | N/A |
| Altitude | 23000 |
| Route | ASMIM DCT NOKIN P17 BEPHE/N0358F220 DCT OSSEP DCT ELNIF DCT ZESPE DCT DAWLY DCT ABBEW/N0350F210 N90 ENHEL N862 SKERY |
| Aircraft | A320/M-SDE2E3FGHIRWXY/LB1 |
Departure
| Time | 2026-05-05 17:32 |
|---|---|
| Airport | Manchester Airport (EGCC) |
Arrival
| Time | N/A |
|---|---|
| Airport | Jersey Airport (EGJJ) |
| Time | Latitude | Longitude | Altitude | Speed | Heading |
|---|---|---|---|---|---|
| 2026-05-05 16:59 | 53.35931 | -2.27523 | 255 ft | 0 kts | 97° |
| 2026-05-05 17:04 | 53.35931 | -2.27524 | 255 ft | 0 kts | 97° |
| 2026-05-05 17:15 | 53.35931 | -2.27526 | 255 ft | 2 kts | 97° |
| 2026-05-05 17:15 | 53.35935 | -2.27567 | 255 ft | 4 kts | 104° |
| 2026-05-05 17:15 | 53.35936 | -2.27576 | 255 ft | 0 kts | 107° |
| 2026-05-05 17:15 | 53.35928 | -2.27531 | 257 ft | 0 kts | 107° |
| 2026-05-05 17:19 | 53.35928 | -2.27532 | 255 ft | 1 kts | 107° |
| 2026-05-05 17:19 | 53.35935 | -2.27572 | 255 ft | 4 kts | 108° |
| 2026-05-05 17:19 | 53.35945 | -2.27613 | 255 ft | 4 kts | 126° |
| 2026-05-05 17:20 | 53.35961 | -2.27634 | 255 ft | 1 kts | 186° |
| 2026-05-05 17:20 | 53.35962 | -2.27634 | 255 ft | 0 kts | 186° |
| 2026-05-05 17:23 | 53.35961 | -2.27634 | 255 ft | 0 kts | 186° |
| 2026-05-05 17:23 | 53.35949 | -2.27636 | 255 ft | 3 kts | 186° |
| 2026-05-05 17:24 | 53.35918 | -2.27642 | 255 ft | 5 kts | 186° |
| 2026-05-05 17:24 | 53.35870 | -2.27651 | 255 ft | 8 kts | 186° |
| 2026-05-05 17:24 | 53.35807 | -2.27661 | 255 ft | 10 kts | 186° |
| 2026-05-05 17:24 | 53.35733 | -2.27637 | 255 ft | 12 kts | 153° |
| 2026-05-05 17:25 | 53.35646 | -2.27624 | 255 ft | 14 kts | 203° |
| 2026-05-05 17:25 | 53.35596 | -2.27694 | 253 ft | 14 kts | 225° |
| 2026-05-05 17:25 | 53.35516 | -2.27822 | 249 ft | 12 kts | 223° |
| 2026-05-05 17:25 | 53.35451 | -2.27927 | 246 ft | 14 kts | 223° |
| 2026-05-05 17:26 | 53.35403 | -2.28004 | 243 ft | 6 kts | 225° |
| 2026-05-05 17:26 | 53.35369 | -2.28060 | 241 ft | 8 kts | 224° |
| 2026-05-05 17:26 | 53.35327 | -2.28129 | 239 ft | 10 kts | 224° |
| 2026-05-05 17:26 | 53.35271 | -2.28224 | 236 ft | 14 kts | 227° |
| 2026-05-05 17:27 | 53.35200 | -2.28365 | 232 ft | 18 kts | 230° |
| 2026-05-05 17:27 | 53.35128 | -2.28508 | 228 ft | 15 kts | 229° |
| 2026-05-05 17:27 | 53.35079 | -2.28615 | 225 ft | 8 kts | 234° |
| 2026-05-05 17:27 | 53.35044 | -2.28688 | 223 ft | 8 kts | 228° |
| 2026-05-05 17:28 | 53.34999 | -2.28767 | 220 ft | 10 kts | 226° |
| 2026-05-05 17:28 | 53.34944 | -2.28863 | 217 ft | 12 kts | 225° |
| 2026-05-05 17:28 | 53.34877 | -2.28980 | 214 ft | 16 kts | 225° |
| 2026-05-05 17:28 | 53.34854 | -2.29017 | 217 ft | 0 kts | 222° |
| 2026-05-05 17:29 | 53.34849 | -2.29024 | 212 ft | 3 kts | 222° |
| 2026-05-05 17:29 | 53.34809 | -2.29074 | 210 ft | 11 kts | 189° |
| 2026-05-05 17:29 | 53.34790 | -2.29077 | 210 ft | 0 kts | 187° |
| 2026-05-05 17:30 | 53.34772 | -2.29077 | 209 ft | 6 kts | 174° |
| 2026-05-05 17:30 | 53.34710 | -2.29043 | 211 ft | 11 kts | 151° |
| 2026-05-05 17:30 | 53.34667 | -2.28986 | 207 ft | 0 kts | 130° |
| 2026-05-05 17:30 | 53.34667 | -2.28964 | 211 ft | 3 kts | 89° |
| 2026-05-05 17:31 | 53.34674 | -2.28949 | 212 ft | 0 kts | 52° |
| 2026-05-05 17:31 | 53.34705 | -2.28882 | 212 ft | 35 kts | 51° |
| 2026-05-05 17:32 | 53.35016 | -2.28236 | 227 ft | 104 kts | 51° |
| 2026-05-05 17:32 | 53.35592 | -2.27052 | 259 ft | 156 kts | 50° |
| 2026-05-05 17:32 | 53.36339 | -2.25554 | 657 ft | 168 kts | 49° |
| 2026-05-05 17:32 | 53.37071 | -2.24060 | 1469 ft | 163 kts | 48° |
| 2026-05-05 17:33 | 53.37828 | -2.22518 | 1926 ft | 181 kts | 49° |
| 2026-05-05 17:33 | 53.38754 | -2.20954 | 2278 ft | 200 kts | 28° |
| 2026-05-05 17:33 | 53.40181 | -2.20496 | 2594 ft | 225 kts | 352° |
| 2026-05-05 17:33 | 53.41653 | -2.21676 | 3059 ft | 250 kts | 315° |
| 2026-05-05 17:34 | 53.42471 | -2.24289 | 3817 ft | 261 kts | 285° |
| 2026-05-05 17:34 | 53.42930 | -2.27252 | 4762 ft | 264 kts | 290° |
| 2026-05-05 17:34 | 53.43613 | -2.30117 | 5679 ft | 266 kts | 294° |
| 2026-05-05 17:34 | 53.44367 | -2.32916 | 6562 ft | 269 kts | 296° |
| 2026-05-05 17:35 | 53.45186 | -2.35749 | 7420 ft | 271 kts | 297° |
| 2026-05-05 17:35 | 53.46046 | -2.38621 | 8316 ft | 273 kts | 297° |
| 2026-05-05 17:35 | 53.46769 | -2.41520 | 9182 ft | 275 kts | 283° |
| 2026-05-05 17:35 | 53.46867 | -2.44773 | 10015 ft | 280 kts | 263° |
| 2026-05-05 17:36 | 53.46522 | -2.48035 | 10438 ft | 298 kts | 261° |
| 2026-05-05 17:36 | 53.46128 | -2.51578 | 10777 ft | 317 kts | 260° |
| 2026-05-05 17:36 | 53.45719 | -2.55248 | 11433 ft | 323 kts | 260° |
| 2026-05-05 17:36 | 53.45240 | -2.58957 | 12177 ft | 328 kts | 253° |
| 2026-05-05 17:37 | 53.44279 | -2.62445 | 12912 ft | 334 kts | 238° |
| 2026-05-05 17:37 | 53.43317 | -2.64533 | 13406 ft | 338 kts | 228° |
| 2026-05-05 17:37 | 53.40793 | -2.67642 | 14313 ft | 346 kts | 207° |
| 2026-05-05 17:37 | 53.38537 | -2.69114 | 14982 ft | 349 kts | 202° |
| 2026-05-05 17:38 | 53.36245 | -2.70534 | 15626 ft | 352 kts | 202° |
| 2026-05-05 17:38 | 53.33940 | -2.71971 | 16261 ft | 355 kts | 202° |
| 2026-05-05 17:38 | 53.31613 | -2.73426 | 16918 ft | 358 kts | 202° |
| 2026-05-05 17:38 | 53.29269 | -2.74889 | 17564 ft | 361 kts | 202° |
| 2026-05-05 17:39 | 53.26906 | -2.76357 | 18188 ft | 364 kts | 202° |
| 2026-05-05 17:39 | 53.24520 | -2.77840 | 18759 ft | 367 kts | 202° |
| 2026-05-05 17:39 | 53.22118 | -2.79331 | 19307 ft | 370 kts | 202° |
| 2026-05-05 17:39 | 53.19700 | -2.80834 | 19863 ft | 372 kts | 202° |
| 2026-05-05 17:40 | 53.17261 | -2.82352 | 20409 ft | 375 kts | 202° |
| 2026-05-05 17:40 | 53.14808 | -2.83876 | 20951 ft | 378 kts | 202° |
| 2026-05-05 17:40 | 53.12328 | -2.85412 | 21493 ft | 381 kts | 202° |
| 2026-05-05 17:40 | 53.09806 | -2.86825 | 22030 ft | 385 kts | 195° |
| 2026-05-05 17:41 | 53.08058 | -2.87382 | 22384 ft | 388 kts | 188° |
| 2026-05-05 17:41 | 53.05344 | -2.87538 | 22893 ft | 393 kts | 178° |
| 2026-05-05 17:41 | 53.02631 | -2.86954 | 23023 ft | 392 kts | 172° |
| 2026-05-05 17:41 | 52.99995 | -2.86233 | 23048 ft | 378 kts | 172° |
| 2026-05-05 17:42 | 52.97416 | -2.85516 | 23029 ft | 374 kts | 172° |